Time;durP1;ratioP1;P1;durP2;ratioP2;P2;SDS_P1;SDS_P2;PMS_P1;PMS_P2;Temp;Humidity;BMP_temperature;BMP_pressure;BME280_temperature;BME280_humidity;BME280_pressure;Samples;Min_cycle;Max_cycle;Signal;HPM_P1;HPM_P2
2021/09/02 00:03:37;;;;;;;14.20;6.57;;;;;;;13.38;100.00;100990.68;715517;1199;114945;-76
2021/09/02 00:18:40;;;;;;;11.93;5.07;;;;;;;13.27;100.00;101001.30;715545;1200;114897;-76
2021/09/02 00:33:42;;;;;;;11.17;5.90;;;;;;;13.03;100.00;100994.58;715529;1200;114270;-77
2021/09/02 00:48:46;;;;;;;11.50;5.10;;;;;;;12.72;100.00;100980.59;715737;1200;114339;-76
2021/09/02 01:03:48;;;;;;;11.43;5.43;;;;;;;12.41;100.00;100997.20;715501;1200;114126;-77
2021/09/02 01:18:50;;;;;;;11.68;5.10;;;;;;;12.38;100.00;100986.95;715727;1199;114533;-77
2021/09/02 01:33:53;;;;;;;12.27;5.97;;;;;;;12.55;100.00;100980.27;715611;1184;114002;-77
2021/09/02 01:48:55;;;;;;;15.40;5.60;;;;;;;12.73;100.00;100975.19;715674;1184;114301;-77
2021/09/02 02:03:58;;;;;;;15.73;6.30;;;;;;;12.74;100.00;100960.25;715598;1206;114643;-77
2021/09/02 02:19:00;;;;;;;14.95;5.68;;;;;;;12.70;100.00;100949.14;715651;1199;115664;-76
2021/09/02 02:34:02;;;;;;;10.80;5.53;;;;;;;12.64;100.00;100954.93;715615;1177;114261;-77
2021/09/02 02:49:05;;;;;;;12.10;5.67;;;;;;;12.54;100.00;100954.91;715575;1199;114259;-77
2021/09/02 03:04:07;;;;;;;11.70;5.48;;;;;;;12.68;100.00;100958.14;715980;1199;114144;-78
2021/09/02 03:19:09;;;;;;;12.57;6.37;;;;;;;12.71;100.00;100953.45;715394;1199;115737;-77
2021/09/02 03:34:11;;;;;;;12.37;6.33;;;;;;;12.74;100.00;100932.11;716012;1199;114315;-77
2021/09/02 03:49:14;;;;;;;15.55;5.90;;;;;;;12.59;100.00;100938.70;715803;1180;114546;-77
2021/09/02 04:04:16;;;;;;;12.25;6.25;;;;;;;12.40;100.00;100921.86;715817;1199;115776;-77
2021/09/02 04:19:18;;;;;;;12.25;7.10;;;;;;;12.42;100.00;100922.58;715792;1199;114720;-74
2021/09/02 04:34:21;;;;;;;16.78;6.68;;;;;;;12.81;100.00;100913.98;716060;1199;115516;-78
2021/09/02 04:49:23;;;;;;;13.43;6.35;;;;;;;13.19;100.00;100916.84;716036;1200;114251;-77
2021/09/02 05:04:25;;;;;;;12.85;6.38;;;;;;;13.50;100.00;100914.10;716189;1199;115703;-74
2021/09/02 05:19:27;;;;;;;10.00;5.53;;;;;;;13.77;100.00;100901.03;715481;1174;114747;-73
2021/09/02 05:34:30;;;;;;;11.63;5.77;;;;;;;14.21;100.00;100936.63;715939;1200;114900;-73
2021/09/02 05:49:32;;;;;;;9.20;6.33;;;;;;;14.66;100.00;100943.03;716058;1200;114713;-73
2021/09/02 06:04:35;;;;;;;13.93;6.57;;;;;;;15.27;100.00;100938.95;716189;1200;114993;-83
2021/09/02 06:19:39;;;;;;;12.58;7.20;;;;;;;15.31;100.00;100946.41;716225;1202;113668;-82
2021/09/02 06:34:41;;;;;;;12.05;6.65;;;;;;;15.44;100.00;100968.98;716337;1200;115396;-82
2021/09/02 06:49:44;;;;;;;24.28;13.75;;;;;;;15.74;100.00;101012.73;716348;1200;114064;-84
2021/09/02 07:04:47;;;;;;;12.48;6.23;;;;;;;15.77;100.00;101006.31;716593;1199;114484;-81
2021/09/02 07:19:50;;;;;;;13.55;5.80;;;;;;;15.95;100.00;100999.22;717539;1176;114593;-87
2021/09/02 07:34:52;;;;;;;8.25;3.93;;;;;;;18.00;100.00;101031.25;717592;1174;114172;-77
2021/09/02 07:49:54;;;;;;;7.18;4.35;;;;;;;18.21;100.00;101057.30;718555;1200;114016;-79
2021/09/02 08:04:56;;;;;;;5.65;2.95;;;;;;;19.46;100.00;101051.47;718189;1174;114266;-77
2021/09/02 08:19:59;;;;;;;6.20;2.68;;;;;;;21.56;100.00;101072.11;715845;1200;114162;-76
2021/09/02 08:35:02;;;;;;;4.47;2.37;;;;;;;22.18;100.00;101087.72;715859;1200;114048;-77
2021/09/02 08:50:06;;;;;;;5.15;2.55;;;;;;;20.55;93.88;101074.47;715949;1203;113885;-75
2021/09/02 09:05:12;;;;;;;8.13;2.93;;;;;;;21.76;92.37;101061.66;715672;1200;114336;-74
2021/09/02 09:20:17;;;;;;;4.45;2.35;;;;;;;21.91;89.02;101071.46;715794;1200;114428;-73
2021/09/02 09:35:25;;;;;;;3.25;2.10;;;;;;;21.52;85.55;101083.34;715809;1200;114093;-74
2021/09/02 09:50:27;;;;;;;5.88;2.30;;;;;;;22.58;82.45;101090.71;715782;1200;115181;-74
2021/09/02 10:05:30;;;;;;;3.88;2.20;;;;;;;23.15;80.24;101091.49;715826;1199;114523;-78
2021/09/02 10:20:37;;;;;;;3.43;2.10;;;;;;;23.02;70.66;101092.22;716042;1201;113742;-78
2021/09/02 10:35:41;;;;;;;3.60;2.30;;;;;;;23.13;64.42;101096.17;716457;1199;114224;-78
2021/09/02 10:50:46;;;;;;;5.13;2.10;;;;;;;23.94;65.37;101110.71;716913;1200;113828;-79
2021/09/02 11:05:55;;;;;;;8.68;1.90;;;;;;;23.18;61.77;101130.41;717791;1203;114497;-78
2021/09/02 11:20:58;;;;;;;9.03;3.08;;;;;;;23.58;64.98;101125.20;717193;1200;113792;-79
2021/09/02 11:36:01;;;;;;;4.73;2.40;;;;;;;23.29;63.09;101123.66;718174;1200;114343;-79
2021/09/02 11:51:03;;;;;;;2.85;1.70;;;;;;;24.91;65.92;101148.63;717932;1199;114577;-79
2021/09/02 12:06:06;;;;;;;4.07;1.90;;;;;;;24.64;65.59;101133.62;718322;1199;115049;-79
2021/09/02 12:21:18;;;;;;;4.50;1.90;;;;;;;24.49;67.38;101133.81;715558;1199;114519;-74
2021/09/02 12:36:22;;;;;;;4.93;1.93;;;;;;;23.93;63.29;101130.48;715684;1202;115138;-74
2021/09/02 12:51:25;;;;;;;3.55;1.75;;;;;;;24.14;65.07;101136.68;715494;1201;114351;-74
2021/09/02 13:06:30;;;;;;;4.28;2.08;;;;;;;24.78;61.64;101142.48;715693;1203;114905;-74
2021/09/02 13:21:32;;;;;;;1.78;1.40;;;;;;;24.47;56.92;101138.55;716008;1199;114728;-78
2021/09/02 13:36:35;;;;;;;4.28;1.80;;;;;;;24.83;56.29;101132.77;715749;1202;113821;-72
2021/09/02 13:51:37;;;;;;;5.17;2.40;;;;;;;25.18;54.94;101135.16;715842;1177;114757;-80
2021/09/02 14:06:40;;;;;;;6.28;2.78;;;;;;;30.97;52.27;101137.83;716589;1200;114519;-79
2021/09/02 14:21:43;;;;;;;4.80;1.75;;;;;;;37.40;46.48;101135.08;717503;1199;113226;-79
2021/09/02 14:36:46;;;;;;;3.90;1.73;;;;;;;39.08;43.23;101131.50;716520;1199;115228;-79
2021/09/02 14:51:49;;;;;;;4.05;1.93;;;;;;;37.72;40.81;101128.00;716284;1174;113762;-78
2021/09/02 15:06:53;;;;;;;4.15;1.93;;;;;;;39.19;41.29;101118.42;715722;1180;115505;-72
2021/09/02 15:21:56;;;;;;;4.17;1.83;;;;;;;32.29;46.03;101092.53;716161;1200;114172;-73
2021/09/02 15:36:59;;;;;;;4.40;2.33;;;;;;;37.12;41.02;101097.42;715882;1199;115470;-74
2021/09/02 15:52:02;;;;;;;3.53;2.27;;;;;;;30.82;45.63;101092.42;718016;1177;113850;-77
2021/09/02 16:07:04;;;;;;;6.20;3.00;;;;;;;26.85;46.89;101082.13;717962;1200;114365;-78
2021/09/02 16:22:07;;;;;;;6.90;3.60;;;;;;;23.26;51.41;101068.68;717016;1199;115143;-76
2021/09/02 16:37:11;;;;;;;7.60;2.80;;;;;;;21.70;55.55;101072.28;716205;1177;113794;-80
2021/09/02 16:52:14;;;;;;;11.55;4.68;;;;;;;21.04;58.92;101079.28;716246;1199;114375;-79
2021/09/02 17:07:16;;;;;;;6.73;3.40;;;;;;;19.90;62.51;101060.69;716198;1199;113915;-79
2021/09/02 17:22:19;;;;;;;9.93;6.78;;;;;;;18.91;66.08;101070.01;716478;1199;114951;-81
2021/09/02 17:37:21;;;;;;;27.95;13.88;;;;;;;18.19;69.09;101088.52;716708;1178;112682;-80
2021/09/02 17:52:24;;;;;;;37.78;17.03;;;;;;;17.56;71.19;101096.02;716394;1200;115400;-77
2021/09/02 18:07:27;;;;;;;18.45;8.73;;;;;;;16.92;73.11;101102.54;716410;1199;114528;-79
2021/09/02 18:22:29;;;;;;;19.15;8.10;;;;;;;16.46;74.71;101123.06;716215;1174;114997;-84
2021/09/02 18:37:31;;;;;;;18.13;7.78;;;;;;;16.13;75.99;101118.31;716387;1183;114368;-82
2021/09/02 18:52:36;;;;;;;11.50;7.43;;;;;;;15.72;77.53;101124.98;717006;1200;114737;-78
2021/09/02 19:07:44;;;;;;;27.53;14.25;;;;;;;15.20;79.38;101125.50;716993;1176;115373;-79
2021/09/02 19:22:47;;;;;;;36.53;16.18;;;;;;;14.58;81.54;101115.34;717228;1176;115400;-79
2021/09/02 19:37:51;;;;;;;25.38;11.78;;;;;;;14.22;83.48;101110.64;716756;1200;114625;-79
2021/09/02 19:52:54;;;;;;;16.33;9.73;;;;;;;13.75;86.70;101095.48;716628;1200;114863;-80
2021/09/02 20:08:03;;;;;;;10.13;5.83;;;;;;;13.43;87.46;101096.49;716417;1200;115654;-80
2021/09/02 20:23:09;;;;;;;;;;;;;;;13.09;90.83;101099.41;716549;1176;114180;-77
2021/09/02 20:38:13;;;;;;;17.33;7.90;;;;;;;12.95;91.03;101089.22;716253;1200;101548;-79
2021/09/02 20:53:19;;;;;;;15.03;7.40;;;;;;;12.57;91.65;101088.85;716326;1200;114347;-79
2021/09/02 21:08:23;;;;;;;22.38;12.30;;;;;;;12.43;92.32;101078.64;716923;1178;114020;-79
2021/09/02 21:23:31;;;;;;;39.50;15.50;;;;;;;12.11;94.54;101077.71;715920;1190;114167;-78
2021/09/02 21:38:41;;;;;;;46.80;17.33;;;;;;;11.98;96.14;101071.79;716145;1176;114598;-78
2021/09/02 21:53:45;;;;;;;18.60;10.38;;;;;;;11.71;97.22;101077.48;716246;1176;114033;-79
2021/09/02 22:08:56;;;;;;;15.00;6.20;;;;;;;11.42;98.33;101056.98;716383;1200;114723;-79
2021/09/02 22:24:00;;;;;;;11.43;5.03;;;;;;;11.25;99.56;101063.57;716228;1202;115590;-79
2021/09/02 22:39:13;;;;;;;16.00;6.30;;;;;;;11.16;99.73;101041.48;716134;1176;114795;-79
2021/09/02 22:54:18;;;;;;;11.30;5.80;;;;;;;10.92;100.00;101038.99;716077;1202;114788;-79
2021/09/02 23:09:35;;;;;;;10.95;3.95;;;;;;;10.71;100.00;101010.00;716491;1200;115705;-79
2021/09/02 23:24:41;;;;;;;12.43;4.10;;;;;;;10.54;100.00;100996.38;716113;1200;114221;-79
2021/09/02 23:39:43;;;;;;;6.43;3.78;;;;;;;10.46;100.00;100985.63;715937;1176;115128;-79
2021/09/02 23:54:48;;;;;;;7.35;3.15;;;;;;;10.36;100.00;100969.78;716160;1177;114521;-79
